Time;durP1;ratioP1;P1;durP2;ratioP2;P2;SDS_P1;SDS_P2;PMS_P1;PMS_P2;Temp;Humidity;BMP_temperature;BMP_pressure;BME280_temperature;BME280_humidity;BME280_pressure;Samples;Min_cycle;Max_cycle;Signal;HPM_P1;HPM_P2
2022/09/21 00:00:33;;;;;;;5.10;1.50;;;;;;;-143.84;52.07;45087.16;5109025;28;20493;-73
2022/09/21 00:03:01;;;;;;;1.83;1.73;;;;;;;-143.84;51.99;45098.56;5108981;28;20431;-73
2022/09/21 00:05:28;;;;;;;1.30;1.20;;;;;;;-143.84;52.07;45077.63;5109003;28;20496;-73
2022/09/21 00:08:00;;;;;;;11.93;1.80;;;;;;;-143.84;52.52;45075.72;5109167;28;20427;-73
2022/09/21 00:10:27;;;;;;;4.13;1.80;;;;;;;-143.84;52.30;45113.81;5109117;28;20443;-73
2022/09/21 00:12:56;;;;;;;4.80;1.63;;;;;;;-143.84;52.53;45096.66;5113241;28;20868;-73
2022/09/21 00:15:23;;;;;;;1.80;1.50;;;;;;;-143.84;52.66;45092.88;5113039;28;20435;-73
2022/09/21 00:17:53;;;;;;;1.83;1.40;;;;;;;-143.84;52.49;45066.22;5113144;28;20500;-72
2022/09/21 00:20:21;;;;;;;1.50;1.40;;;;;;;-143.84;52.55;45102.38;5113184;28;20836;-72
2022/09/21 00:22:49;;;;;;;1.57;1.43;;;;;;;-143.84;52.64;45064.31;5112922;28;20901;-72
2022/09/21 00:25:19;;;;;;;1.83;1.37;;;;;;;-143.84;53.13;45102.38;5112893;28;20450;-72
2022/09/21 00:27:50;;;;;;;1.47;1.37;;;;;;;-143.84;53.19;45094.78;5112657;28;20859;-73
2022/09/21 00:30:17;;;;;;;1.63;1.53;;;;;;;-143.84;53.65;45085.25;5112925;28;20516;-73
2022/09/21 00:32:45;;;;;;;4.63;1.60;;;;;;;-143.84;53.74;45077.63;5112348;28;20431;-73
2022/09/21 00:35:12;;;;;;;1.87;1.30;;;;;;;-143.84;53.75;45064.31;5112693;28;20442;-72
2022/09/21 00:37:39;;;;;;;1.50;1.40;;;;;;;-143.84;53.69;45073.81;5111569;28;20546;-72
2022/09/21 00:40:07;;;;;;;1.80;1.70;;;;;;;-143.84;53.92;45083.34;5112197;28;20441;-72
2022/09/21 00:42:36;;;;;;;2.10;1.90;;;;;;;-143.84;53.79;45090.97;5112267;28;20506;-73
2022/09/21 00:45:04;;;;;;;1.50;1.40;;;;;;;-143.84;54.35;45098.56;5112243;28;20508;-73
2022/09/21 00:47:35;;;;;;;1.63;1.53;;;;;;;-143.84;54.16;45100.47;5112004;28;20461;-73
2022/09/21 00:50:07;;;;;;;1.60;1.50;;;;;;;-143.84;54.82;45096.66;5112489;28;20452;-73
2022/09/21 00:52:39;;;;;;;3.07;1.83;;;;;;;-143.84;54.58;45098.56;5112272;28;20776;-73
2022/09/21 00:55:13;;;;;;;1.60;1.50;;;;;;;-143.84;54.54;45070.00;5112318;28;20440;-73
2022/09/21 00:57:43;;;;;;;1.57;1.47;;;;;;;-143.84;55.07;45102.38;5112321;28;20572;-73
2022/09/21 01:00:11;;;;;;;2.47;2.27;;;;;;;-143.84;55.00;45071.91;5112282;28;20518;-72
2022/09/21 01:02:39;;;;;;;1.70;1.60;;;;;;;-143.84;54.75;45089.06;5111799;28;20441;-73
2022/09/21 01:05:08;;;;;;;1.70;1.50;;;;;;;-143.84;54.58;45090.97;5112012;28;20430;-73
2022/09/21 01:07:40;;;;;;;1.67;1.57;;;;;;;-143.84;54.52;45070.00;5111941;28;20460;-73
2022/09/21 01:10:11;;;;;;;1.50;1.40;;;;;;;-143.84;54.21;45075.72;5112037;28;20448;-73
2022/09/21 01:13:04;;;;;;;1.83;1.73;;;;;;;-143.84;54.57;45094.78;5112175;28;20446;-72
2022/09/21 01:15:41;;;;;;;1.47;1.37;;;;;;;-143.84;54.76;45113.81;5112037;28;20438;-73
2022/09/21 01:18:17;;;;;;;1.80;1.70;;;;;;;-143.84;54.72;45073.81;5112011;28;20894;-72
2022/09/21 01:21:18;;;;;;;1.60;1.40;;;;;;;-143.84;55.00;45081.44;5112006;28;20442;-72
2022/09/21 01:24:18;;;;;;;1.63;1.53;;;;;;;-143.84;55.17;45096.66;5027710;28;20543;-73
2022/09/21 01:27:05;;;;;;;3.00;1.23;;;;;;;-143.84;55.20;45089.06;5078411;28;20481;-72
2022/09/21 01:29:42;;;;;;;3.30;2.00;;;;;;;-143.84;54.91;45087.16;5091295;28;20872;-73
2022/09/21 01:32:14;;;;;;;1.27;1.17;;;;;;;-143.84;54.80;45068.13;5091180;28;20435;-73
2022/09/21 01:34:47;;;;;;;1.50;1.40;;;;;;;-143.84;54.85;45094.78;5091074;28;20430;-73
2022/09/21 01:37:19;;;;;;;1.60;1.50;;;;;;;-143.84;54.87;45090.97;5090862;28;20513;-73
2022/09/21 01:39:51;;;;;;;1.57;1.47;;;;;;;-143.84;54.89;45090.97;5091010;28;20440;-73
2022/09/21 01:42:22;;;;;;;1.57;1.47;;;;;;;-143.84;55.02;45075.72;5091007;28;20441;-73
2022/09/21 01:44:51;;;;;;;1.27;1.17;;;;;;;-143.84;55.12;45096.66;5091244;28;20432;-73
2022/09/21 01:47:19;;;;;;;1.73;1.63;;;;;;;-143.84;55.12;45083.34;5091375;28;20493;-73
2022/09/21 01:49:49;;;;;;;1.83;1.20;;;;;;;-143.84;54.97;45102.38;5091035;28;20437;-73
2022/09/21 01:52:21;;;;;;;1.80;1.63;;;;;;;-143.84;55.04;45090.97;5091144;28;20442;-73
2022/09/21 01:54:53;;;;;;;3.77;1.30;;;;;;;-143.84;54.79;45060.50;5090687;28;20435;-73
2022/09/21 01:57:28;;;;;;;1.40;1.30;;;;;;;-143.84;54.83;45102.38;5090498;28;20534;-73
2022/09/21 01:59:59;;;;;;;2.07;1.60;;;;;;;-143.84;54.92;45102.38;5090581;28;20426;-73
2022/09/21 02:02:32;;;;;;;1.53;1.43;;;;;;;-143.84;54.86;45083.34;5090775;28;20952;-73
2022/09/21 02:05:01;;;;;;;3.10;1.40;;;;;;;-143.84;54.97;45075.72;5090950;28;20461;-73
2022/09/21 02:07:28;;;;;;;56.13;2.33;;;;;;;-143.84;55.25;45104.28;5090421;28;20565;-73
2022/09/21 02:09:56;;;;;;;1.93;1.50;;;;;;;-143.84;55.20;45060.50;5090205;28;20507;-73
2022/09/21 02:12:23;;;;;;;1.90;1.80;;;;;;;-143.84;55.05;45092.88;5090675;28;20443;-73
2022/09/21 02:14:55;;;;;;;1.60;1.50;;;;;;;-143.84;55.46;45100.47;5090203;28;20461;-73
2022/09/21 02:17:36;;;;;;;1.87;1.73;;;;;;;-143.84;55.40;45085.25;5090307;28;20574;-73
2022/09/21 02:20:16;;;;;;;4.60;1.63;;;;;;;-143.84;55.51;45094.78;5090423;28;20513;-72
2022/09/21 02:22:58;;;;;;;10.47;1.70;;;;;;;-143.84;55.83;45090.97;5090353;28;20444;-72
2022/09/21 02:25:36;;;;;;;6.23;1.57;;;;;;;-143.84;55.91;45106.19;5089990;28;20454;-72
2022/09/21 02:28:13;;;;;;;4.13;1.40;;;;;;;-143.84;56.20;45100.47;5089939;28;20446;-73
2022/09/21 02:30:48;;;;;;;12.87;1.60;;;;;;;-143.84;56.40;45098.56;5090051;28;20438;-73
2022/09/21 02:33:24;;;;;;;1.50;1.40;;;;;;;-143.84;56.59;45073.81;5090167;28;20435;-73
2022/09/21 02:36:00;;;;;;;4.87;1.97;;;;;;;-143.84;56.87;45094.78;5089554;28;20500;-73
2022/09/21 02:38:39;;;;;;;1.77;1.67;;;;;;;-143.84;56.90;45094.78;5090242;28;20533;-73
2022/09/21 02:41:17;;;;;;;1.80;1.70;;;;;;;-143.84;56.82;45094.78;5090168;28;21124;-77
2022/09/21 02:43:47;;;;;;;1.50;1.40;;;;;;;-143.84;57.08;45068.13;5090254;28;20469;-77
2022/09/21 02:46:19;;;;;;;2.07;1.63;;;;;;;-143.84;57.29;45106.19;5089669;28;20511;-77
2022/09/21 02:48:51;;;;;;;1.87;1.77;;;;;;;-143.84;57.28;45087.16;5100686;28;20469;-77
2022/09/21 02:51:22;;;;;;;4.30;1.87;;;;;;;-143.84;57.59;45100.47;5109679;28;20493;-76
2022/09/21 02:53:52;;;;;;;2.27;1.90;;;;;;;-143.84;57.46;45083.34;5109203;28;20439;-77
2022/09/21 02:56:20;;;;;;;3.00;1.70;;;;;;;-143.84;57.41;45111.91;5110306;28;20495;-77
2022/09/21 02:58:53;;;;;;;3.80;1.60;;;;;;;-143.84;57.56;45079.53;5110518;28;20476;-77
2022/09/21 03:01:21;;;;;;;1.47;1.30;;;;;;;-143.84;57.50;45089.06;5110106;28;20787;-73
2022/09/21 03:03:50;;;;;;;3.13;1.60;;;;;;;-143.84;57.91;45087.16;5109802;28;20954;-73
2022/09/21 03:06:17;;;;;;;1.50;1.40;;;;;;;-143.84;57.76;45079.53;5109729;28;20525;-73
2022/09/21 03:08:44;;;;;;;3.20;1.33;;;;;;;-143.84;57.74;45077.63;5109658;28;20454;-73
2022/09/21 03:11:16;;;;;;;1.70;1.60;;;;;;;-143.84;57.91;45085.25;5109679;28;20438;-71
2022/09/21 03:13:43;;;;;;;1.60;1.40;;;;;;;-143.84;58.02;45089.06;5109782;28;20504;-72
2022/09/21 03:16:11;;;;;;;2.80;1.60;;;;;;;-143.84;57.94;45090.97;5109470;28;20532;-72
2022/09/21 03:18:39;;;;;;;1.93;1.67;;;;;;;-143.84;58.05;45094.78;5109472;28;20472;-72
2022/09/21 03:21:07;;;;;;;1.73;1.57;;;;;;;-143.84;58.45;45087.16;5109276;28;20519;-72
2022/09/21 03:23:35;;;;;;;1.70;1.60;;;;;;;-143.84;58.10;45125.22;5109710;28;20501;-72
2022/09/21 03:26:03;;;;;;;6.13;1.60;;;;;;;-143.84;58.17;45092.88;5109276;28;20967;-72
2022/09/21 03:28:30;;;;;;;2.40;1.20;;;;;;;-143.84;58.39;45102.38;5109480;28;20455;-71
2022/09/21 03:30:57;;;;;;;2.90;1.30;;;;;;;-143.84;58.46;45073.81;5099811;28;20443;-72
2022/09/21 03:33:25;;;;;;;2.07;1.70;;;;;;;-143.84;58.39;45085.25;5101644;28;20448;-72
2022/09/21 03:35:52;;;;;;;1.60;1.50;;;;;;;-143.84;58.72;45094.78;5109351;28;20526;-72
2022/09/21 03:38:21;;;;;;;1.50;1.40;;;;;;;-143.84;58.86;45090.97;5109411;28;20475;-72
2022/09/21 03:40:49;;;;;;;1.83;1.60;;;;;;;-143.84;58.76;45111.91;5109107;28;20439;-72
2022/09/21 03:43:17;;;;;;;2.77;1.77;;;;;;;-143.84;59.33;45083.34;5109254;28;20522;-72
2022/09/21 03:45:44;;;;;;;3.53;1.87;;;;;;;-143.84;59.11;45100.47;5108720;28;20513;-71
2022/09/21 03:48:14;;;;;;;1.90;1.80;;;;;;;-143.84;59.19;45102.38;5109093;28;20444;-72
2022/09/21 03:50:41;;;;;;;2.50;1.80;;;;;;;-143.84;59.45;45089.06;5109287;28;20443;-72
2022/09/21 03:53:09;;;;;;;3.53;1.77;;;;;;;-143.84;59.31;45079.53;5109321;28;20435;-72
2022/09/21 03:55:38;;;;;;;1.70;1.60;;;;;;;-143.84;59.46;45108.09;5099858;28;21015;-73
2022/09/21 03:58:05;;;;;;;6.50;2.00;;;;;;;-143.84;59.86;45085.25;5087890;28;20906;-72
2022/09/21 04:00:34;;;;;;;2.47;1.50;;;;;;;-143.84;60.01;45083.34;5088875;28;20444;-72
2022/09/21 04:03:01;;;;;;;2.57;2.07;;;;;;;-143.84;59.86;45108.09;5088801;28;20438;-73
2022/09/21 04:05:29;;;;;;;1.87;1.67;;;;;;;-143.84;59.90;45100.47;5088499;28;20444;-73
2022/09/21 04:07:56;;;;;;;5.13;1.53;;;;;;;-143.84;60.13;45111.91;5088571;28;20441;-72
2022/09/21 04:10:25;;;;;;;7.67;1.47;;;;;;;-143.84;60.07;45094.78;5088467;28;20440;-74
2022/09/21 04:12:57;;;;;;;3.83;1.50;;;;;;;-143.84;60.10;45098.56;5087990;28;20431;-72
2022/09/21 04:15:25;;;;;;;7.23;1.60;;;;;;;-143.84;60.01;45087.16;5088927;28;20518;-72
2022/09/21 04:17:53;;;;;;;1.90;1.80;;;;;;;-143.84;60.41;45075.72;5088697;28;20804;-71
2022/09/21 04:20:21;;;;;;;6.90;1.50;;;;;;;-143.84;60.46;45115.72;5088535;28;20444;-72
2022/09/21 04:22:50;;;;;;;6.33;1.90;;;;;;;-143.84;60.12;45102.38;5088298;28;20451;-71
2022/09/21 04:25:17;;;;;;;3.83;1.73;;;;;;;-143.84;60.31;45096.66;5088466;28;20520;-72
2022/09/21 04:27:44;;;;;;;2.33;2.13;;;;;;;-143.84;60.64;45098.56;5088076;28;21006;-71
2022/09/21 04:30:15;;;;;;;2.63;2.00;;;;;;;-143.84;60.28;45089.06;5088432;28;20438;-70
2022/09/21 04:32:43;;;;;;;3.93;1.77;;;;;;;-143.84;60.66;45077.63;5088319;28;20430;-72
2022/09/21 04:35:10;;;;;;;12.90;2.40;;;;;;;-143.84;60.72;45087.16;5088288;28;20433;-71
2022/09/21 04:37:37;;;;;;;5.10;1.97;;;;;;;-143.84;60.99;45096.66;5087975;28;20937;-71
2022/09/21 04:40:05;;;;;;;2.50;1.73;;;;;;;-143.84;60.88;45129.03;5088466;28;20433;-72
2022/09/21 04:42:33;;;;;;;2.47;1.80;;;;;;;-143.84;61.03;45100.47;5088040;28;20436;-72
2022/09/21 04:45:00;;;;;;;2.03;1.83;;;;;;;-143.84;61.29;45106.19;5088316;28;20501;-72
2022/09/21 04:47:31;;;;;;;2.10;1.87;;;;;;;-143.84;61.08;45087.16;5087647;28;20950;-72
2022/09/21 04:49:58;;;;;;;2.03;1.90;;;;;;;-143.84;61.20;45113.81;5088334;28;20449;-72
2022/09/21 04:52:25;;;;;;;1.90;1.80;;;;;;;-143.84;60.42;45079.53;5088199;28;20444;-72
2022/09/21 04:54:52;;;;;;;2.00;1.77;;;;;;;-143.84;58.50;45070.00;5088285;28;21005;-72
2022/09/21 04:57:19;;;;;;;3.20;2.10;;;;;;;-143.84;56.74;45073.81;5087692;28;20792;-72
2022/09/21 04:59:47;;;;;;;6.10;2.00;;;;;;;-143.84;55.43;45049.06;5091384;28;20980;-71
2022/09/21 05:02:14;;;;;;;2.10;1.90;;;;;;;-143.84;54.35;45068.13;5091508;28;20431;-71
2022/09/21 05:04:42;;;;;;;2.00;1.60;;;;;;;-143.84;52.57;45094.78;5091367;28;20945;-72
2022/09/21 05:07:09;;;;;;;1.80;1.50;;;;;;;-143.84;51.45;45098.56;5091394;28;20451;-72
2022/09/21 05:12:21;;;;;;;4.80;2.00;;;;;;;-143.84;49.59;45090.97;5090984;28;20414;-72
2022/09/21 05:14:48;;;;;;;2.70;1.63;;;;;;;-143.84;49.77;45087.16;5091888;28;20464;-72
2022/09/21 05:17:15;;;;;;;3.53;1.67;;;;;;;-143.84;49.34;45077.63;5091623;28;21158;-72
2022/09/21 05:19:44;;;;;;;2.00;1.50;;;;;;;-143.84;48.54;45083.34;5091664;28;20478;-73
2022/09/21 05:22:11;;;;;;;2.90;2.00;;;;;;;-143.84;48.18;45056.69;5091312;28;20452;-72
2022/09/21 05:24:38;;;;;;;5.30;2.00;;;;;;;-143.84;47.67;45066.22;5091952;28;20440;-73
2022/09/21 05:27:06;;;;;;;1.90;1.80;;;;;;;-143.84;47.27;45066.22;5092774;27;20498;-73
2022/09/21 05:29:34;;;;;;;1.93;1.77;;;;;;;-143.84;46.53;45070.00;5098074;27;20461;-73
2022/09/21 05:32:06;;;;;;;6.20;1.87;;;;;;;-143.84;46.27;45052.88;5095216;27;20447;-73
2022/09/21 05:34:50;;;;;;;3.00;1.80;;;;;;;-143.84;45.69;45070.00;5077546;27;20474;-73
2022/09/21 05:37:36;;;;;;;1.80;1.60;;;;;;;-143.84;45.19;45052.88;5101791;27;20478;-73
2022/09/21 05:40:05;;;;;;;6.63;2.20;;;;;;;-143.84;45.39;45071.91;5116730;27;20487;-73
2022/09/21 05:42:32;;;;;;;3.00;2.47;;;;;;;-143.84;44.73;45056.69;5100838;28;20469;-74
2022/09/21 05:45:00;;;;;;;2.13;1.97;;;;;;;-143.84;44.04;45050.97;5108148;27;20503;-75
2022/09/21 05:47:37;;;;;;;5.60;1.93;;;;;;;-143.84;43.32;45050.97;5119719;27;21188;-75
2022/09/21 05:50:24;;;;;;;20.07;2.30;;;;;;;-143.84;43.96;45062.41;5096062;27;20976;-75
2022/09/21 05:53:01;;;;;;;3.10;1.87;;;;;;;-143.84;43.19;45056.69;5095909;27;20462;-75
2022/09/21 05:55:40;;;;;;;2.33;1.77;;;;;;;-143.84;43.67;45037.66;5110330;27;20451;-74
2022/09/21 05:58:15;;;;;;;2.53;1.93;;;;;;;-143.84;43.42;45052.88;5112689;27;20509;-75
2022/09/21 06:00:53;;;;;;;14.50;2.13;;;;;;;-143.84;43.11;45066.22;5111516;27;20464;-75
2022/09/21 06:03:28;;;;;;;5.67;1.93;;;;;;;-143.84;43.04;45066.22;5091406;28;20457;-75
2022/09/21 06:06:05;;;;;;;8.10;6.20;;;;;;;-143.84;42.96;45031.94;5091288;28;20434;-75
2022/09/21 06:08:34;;;;;;;10.53;7.40;;;;;;;-143.84;42.43;45041.44;5090306;28;20937;-76
2022/09/21 06:11:05;;;;;;;8.50;4.90;;;;;;;-143.84;41.94;45012.88;5089300;28;20491;-75
2022/09/21 06:44:58;;;;;;;3.47;1.60;;;;;;;-143.84;39.32;45030.03;5090262;28;21050;-76
2022/09/21 06:47:26;;;;;;;2.70;1.40;;;;;;;-143.84;38.98;45031.94;5110924;28;20442;-77
2022/09/21 06:49:53;;;;;;;1.60;1.07;;;;;;;-143.84;39.10;45030.03;5110576;28;20499;-75
2022/09/21 06:52:20;;;;;;;1.20;1.10;;;;;;;-143.84;38.38;45020.50;5110685;28;20454;-74
2022/09/21 06:54:48;;;;;;;2.90;1.27;;;;;;;-143.84;37.79;45028.13;5109742;28;20481;-74
2022/09/21 06:57:15;;;;;;;1.37;1.17;;;;;;;-143.84;37.95;45028.13;5110782;28;20466;-75
2022/09/21 06:59:42;;;;;;;3.47;1.27;;;;;;;-143.84;37.53;45028.13;5110244;28;20475;-75
2022/09/21 07:02:11;;;;;;;3.60;1.50;;;;;;;-143.84;37.35;45020.50;5110257;28;20439;-74
2022/09/21 07:04:39;;;;;;;2.90;1.37;;;;;;;-143.84;37.18;45037.66;5108759;28;20948;-74
2022/09/21 07:07:06;;;;;;;2.33;1.07;;;;;;;-143.84;36.52;45039.53;5108882;28;20438;-74
2022/09/21 07:09:33;;;;;;;1.83;1.03;;;;;;;-143.84;36.32;45010.97;5109376;28;20435;-74
2022/09/21 07:12:00;;;;;;;2.03;1.27;;;;;;;-143.84;36.23;45018.59;5108859;28;20492;-74
2022/09/21 07:14:27;;;;;;;1.80;1.10;;;;;;;-143.84;35.87;45009.09;5109122;28;20435;-74
2022/09/21 07:16:54;;;;;;;4.70;1.17;;;;;;;-143.84;35.36;44997.66;5108710;28;20505;-74
2022/09/21 07:19:23;;;;;;;1.47;1.17;;;;;;;-143.84;35.31;45014.78;5109466;28;20501;-74
2022/09/21 07:21:51;;;;;;;1.20;1.10;;;;;;;-143.84;35.21;45007.19;5109442;28;20545;-75
2022/09/21 07:24:18;;;;;;;5.47;1.37;;;;;;;-143.84;34.63;45010.97;5110043;28;20432;-75
2022/09/21 07:26:45;;;;;;;1.50;1.20;;;;;;;-143.84;34.76;45020.50;5110032;28;20446;-75
2022/09/21 07:29:13;;;;;;;2.33;1.03;;;;;;;-143.84;34.54;45018.59;5110145;28;20435;-75
2022/09/21 07:31:42;;;;;;;2.20;1.40;;;;;;;-143.84;35.29;45005.28;5110003;28;20495;-74
2022/09/21 07:34:10;;;;;;;4.70;1.30;;;;;;;-143.84;34.66;45028.13;5109818;28;20439;-75
2022/09/21 07:36:38;;;;;;;4.23;1.63;;;;;;;-143.84;34.99;45001.47;5110153;28;20492;-76
2022/09/21 07:39:05;;;;;;;1.37;1.10;;;;;;;-143.84;34.51;45018.59;5109934;28;20459;-75
2022/09/21 07:41:32;;;;;;;3.20;1.47;;;;;;;-143.84;34.90;44986.22;5109988;28;20447;-75
2022/09/21 07:44:00;;;;;;;8.07;1.80;;;;;;;-143.84;35.23;45007.19;5109679;28;21043;-75
2022/09/21 07:46:27;;;;;;;2.13;1.17;;;;;;;-143.84;34.68;45018.59;5110256;28;20439;-75
2022/09/21 07:48:54;;;;;;;1.10;0.97;;;;;;;-143.84;34.17;45007.19;5109800;28;20443;-76
2022/09/21 07:51:22;;;;;;;1.88;1.00;;;;;;;-143.84;34.05;44990.03;5109338;28;20499;-74
2022/09/21 07:53:56;;;;;;;0.97;0.80;;;;;;;-143.84;34.42;45033.84;5110063;28;20212;-74
2022/09/21 07:56:23;;;;;;;3.53;1.20;;;;;;;-143.84;34.13;44997.66;5109808;28;20447;-74
2022/09/21 07:59:07;;;;;;;1.60;1.50;;;;;;;-143.84;33.51;45024.31;5109748;28;20463;-74
2022/09/21 08:01:36;;;;;;;1.00;0.90;;;;;;;-143.84;33.37;44995.75;5109467;28;20951;-74
2022/09/21 08:04:05;;;;;;;1.40;1.10;;;;;;;-143.84;33.74;44991.94;5109445;28;20427;-74
2022/09/21 08:06:34;;;;;;;1.20;0.90;;;;;;;-143.84;33.40;44974.81;5109770;28;20935;-74
2022/09/21 08:09:04;;;;;;;1.30;1.00;;;;;;;-143.84;33.75;44995.75;5109464;28;20443;-74
2022/09/21 08:11:33;;;;;;;6.87;1.53;;;;;;;-143.84;33.68;44990.03;5109694;28;20798;-74
2022/09/21 08:14:02;;;;;;;2.13;1.30;;;;;;;-143.84;32.99;44988.13;5109482;28;20813;-74
2022/09/21 08:16:30;;;;;;;1.50;1.20;;;;;;;-143.84;32.32;44980.53;5109380;28;20862;-74
2022/09/21 08:18:57;;;;;;;1.40;0.77;;;;;;;-143.84;32.80;44967.19;5109429;28;21100;-74
2022/09/21 08:21:25;;;;;;;4.73;1.00;;;;;;;-143.84;33.12;44990.03;5109354;28;20449;-74
2022/09/21 08:23:52;;;;;;;1.03;0.93;;;;;;;-143.84;32.32;44995.75;5109448;28;21080;-74
2022/09/21 08:26:22;;;;;;;1.30;1.20;;;;;;;-143.84;32.09;44974.81;5109425;28;20519;-74
2022/09/21 08:28:57;;;;;;;3.63;1.07;;;;;;;-143.84;32.99;44980.53;5109599;28;20553;-74
2022/09/21 08:31:25;;;;;;;1.60;1.37;;;;;;;-143.84;31.89;44978.63;5109489;28;20595;-74
2022/09/21 08:33:53;;;;;;;1.20;1.10;;;;;;;-143.84;32.77;44967.19;5113263;28;20442;-74
2022/09/21 08:36:20;;;;;;;1.40;1.30;;;;;;;-143.84;30.95;44974.81;5113139;28;20438;-74
2022/09/21 08:38:48;;;;;;;1.73;1.00;;;;;;;-143.84;31.99;44976.72;5112953;28;20439;-74
2022/09/21 08:41:18;;;;;;;1.30;1.20;;;;;;;-143.84;32.11;44961.47;5113142;28;20435;-74
2022/09/21 08:43:51;;;;;;;1.70;1.10;;;;;;;-143.84;31.86;44971.00;5112786;28;20531;-74
2022/09/21 08:46:22;;;;;;;1.13;1.03;;;;;;;-143.84;31.85;44997.66;5113023;28;20454;-74
2022/09/21 08:48:54;;;;;;;1.30;1.20;;;;;;;-143.84;31.59;44961.47;5112663;28;20454;-75
2022/09/21 08:51:26;;;;;;;1.70;1.27;;;;;;;-143.84;31.43;44978.63;5112228;28;20546;-75
2022/09/21 08:53:55;;;;;;;1.80;1.13;;;;;;;-143.84;32.46;44971.00;5111853;28;20496;-75
2022/09/21 08:56:25;;;;;;;1.00;0.83;;;;;;;-143.84;31.86;44963.38;5111623;28;20442;-75
2022/09/21 08:58:53;;;;;;;2.07;0.97;;;;;;;-143.84;31.22;44993.84;5112541;28;20435;-75
2022/09/21 09:01:39;;;;;;;1.40;1.07;;;;;;;-143.84;32.17;44948.16;5112773;28;20447;-74
2022/09/21 09:04:28;;;;;;;5.33;1.10;;;;;;;-143.84;31.87;44957.66;5112924;28;20819;-70
2022/09/21 09:07:09;;;;;;;6.40;1.03;;;;;;;-143.84;31.78;44940.53;5112210;28;20453;-70
2022/09/21 09:09:52;;;;;;;2.10;1.17;;;;;;;-143.84;30.93;44963.38;5112208;28;20439;-71
2022/09/21 09:12:37;;;;;;;4.10;1.20;;;;;;;-143.84;31.52;44965.28;5112509;28;20512;-76
2022/09/21 09:15:37;;;;;;;1.80;1.70;;;;;;;-143.84;31.86;44951.97;5112489;28;20423;-74
2022/09/21 09:18:12;;;;;;;3.23;1.00;;;;;;;-143.84;31.63;44990.03;5112623;28;20964;-74
2022/09/21 09:20:44;;;;;;;6.00;1.03;;;;;;;-143.84;31.64;44938.63;5112629;28;20477;-74
2022/09/21 09:23:19;;;;;;;1.23;1.13;;;;;;;-143.84;30.81;44953.88;5112400;28;20520;-74
2022/09/21 09:25:50;;;;;;;1.13;1.03;;;;;;;-143.84;31.11;44940.53;5112230;28;20430;-74
2022/09/21 09:28:24;;;;;;;1.10;1.00;;;;;;;-143.84;31.25;44965.28;5112443;28;20435;-74
2022/09/21 09:30:59;;;;;;;1.00;0.80;;;;;;;-143.84;31.35;44967.19;5111954;28;20427;-75
2022/09/21 09:33:31;;;;;;;6.83;0.80;;;;;;;-143.84;31.68;44965.28;5111853;28;20447;-75
2022/09/21 09:36:03;;;;;;;1.30;0.97;;;;;;;-143.84;30.86;44965.28;5111276;28;20436;-75
2022/09/21 09:38:36;;;;;;;3.03;1.13;;;;;;;-143.84;32.42;44971.00;5110446;28;20470;-74
2022/09/21 09:41:23;;;;;;;1.63;0.80;;;;;;;-143.84;32.29;44976.72;5111352;28;20901;-74
2022/09/21 09:44:03;;;;;;;1.10;1.00;;;;;;;-143.84;31.54;44988.13;5110482;28;20881;-74
2022/09/21 09:46:37;;;;;;;1.63;0.90;;;;;;;-143.84;30.31;44969.09;5111845;28;20496;-74
2022/09/21 09:49:24;;;;;;;1.00;0.90;;;;;;;-143.84;30.81;44988.13;5111496;28;20936;-74
2022/09/21 09:51:52;;;;;;;1.00;0.80;;;;;;;-143.84;30.04;44957.66;5111511;28;20492;-74
2022/09/21 09:54:24;;;;;;;5.10;1.20;;;;;;;-143.84;31.25;44980.53;5111265;28;20446;-74
2022/09/21 09:56:52;;;;;;;5.57;0.87;;;;;;;-143.84;31.11;44988.13;5111112;28;21174;-74
2022/09/21 09:59:28;;;;;;;5.03;1.03;;;;;;;-143.84;31.55;44972.91;5110822;28;20514;-74
2022/09/21 10:02:05;;;;;;;1.50;0.97;;;;;;;-143.84;32.35;44982.41;5111315;28;20442;-74
2022/09/21 10:04:34;;;;;;;1.10;1.00;;;;;;;-143.84;32.75;44984.31;5111050;28;20451;-74
2022/09/21 10:07:01;;;;;;;1.10;0.97;;;;;;;-143.84;31.97;44997.66;5111085;28;20438;-74
2022/09/21 10:09:32;;;;;;;2.20;0.70;;;;;;;-143.84;30.94;44980.53;5111184;28;20866;-74
2022/09/21 10:12:02;;;;;;;3.00;0.77;;;;;;;-143.84;32.11;44999.56;5110755;28;20804;-74
2022/09/21 10:14:34;;;;;;;3.00;0.90;;;;;;;-143.84;32.77;44997.66;5110994;28;20502;-74
2022/09/21 10:17:08;;;;;;;1.00;0.70;;;;;;;-143.84;32.03;44991.94;5110852;28;20468;-74
2022/09/21 10:19:36;;;;;;;3.53;0.80;;;;;;;-143.84;31.11;44999.56;5110929;28;20479;-74
2022/09/21 10:22:05;;;;;;;2.03;1.20;;;;;;;-143.84;31.66;44993.84;5110814;28;20442;-74
2022/09/21 10:24:35;;;;;;;1.80;1.00;;;;;;;-143.84;33.52;44991.94;5111057;28;20508;-74
2022/09/21 10:27:06;;;;;;;2.73;1.53;;;;;;;-143.84;34.38;44988.13;5110997;28;20864;-74
2022/09/21 10:29:41;;;;;;;6.07;1.20;;;;;;;-143.84;34.42;44997.66;5111388;28;20436;-74
2022/09/21 10:32:25;;;;;;;1.77;1.40;;;;;;;-143.84;34.54;45024.31;5110805;28;20434;-74
2022/09/21 10:35:15;;;;;;;4.40;1.33;;;;;;;-143.84;35.16;45005.28;5111077;28;20526;-74
2022/09/21 10:37:44;;;;;;;3.10;1.30;;;;;;;-143.84;35.69;45007.19;5110867;28;20562;-74
2022/09/21 10:40:26;;;;;;;12.90;1.50;;;;;;;-143.84;35.46;44982.41;5110740;28;20518;-74
2022/09/21 10:42:57;;;;;;;5.83;1.80;;;;;;;-143.84;35.48;44991.94;5110609;28;20438;-74
2022/09/21 10:45:26;;;;;;;1.97;1.10;;;;;;;-143.84;35.02;45001.47;5110588;28;20442;-74
2022/09/21 10:47:57;;;;;;;4.73;1.97;;;;;;;-143.84;34.88;45014.78;5110608;28;20968;-74
2022/09/21 10:50:27;;;;;;;8.70;1.53;;;;;;;-143.84;35.00;44988.13;5110777;28;20458;-74
2022/09/21 10:53:00;;;;;;;5.20;1.17;;;;;;;-143.84;35.20;44999.56;5110463;28;20496;-74
2022/09/21 10:55:30;;;;;;;2.83;1.30;;;;;;;-143.84;35.79;45005.28;5110769;28;20506;-74
2022/09/21 10:57:58;;;;;;;1.20;1.10;;;;;;;-143.84;34.81;45009.09;5110743;28;20428;-74
2022/09/21 11:00:35;;;;;;;2.90;1.03;;;;;;;-143.84;35.21;45005.28;5110179;28;20512;-74
2022/09/21 11:03:40;;;;;;;2.03;1.20;;;;;;;-143.84;35.81;45026.22;5110094;28;20986;-74
2022/09/21 11:06:15;;;;;;;3.93;1.10;;;;;;;-143.84;35.23;45031.94;5110031;28;20503;-74
2022/09/21 11:08:48;;;;;;;6.57;1.50;;;;;;;-143.84;36.27;45003.38;5110321;28;20483;-74
2022/09/21 11:11:30;;;;;;;3.47;1.20;;;;;;;-143.84;35.11;44997.66;5110433;28;20431;-74
2022/09/21 11:14:06;;;;;;;1.00;0.80;;;;;;;-143.84;34.94;44990.03;5110150;28;20847;-74
2022/09/21 11:16:40;;;;;;;10.10;1.00;;;;;;;-143.84;35.92;45026.22;5110013;28;20451;-74
2022/09/21 11:19:18;;;;;;;3.20;0.90;;;;;;;-143.84;35.65;45001.47;5110235;28;20443;-74
2022/09/21 11:21:52;;;;;;;4.10;1.33;;;;;;;-143.84;35.88;45005.28;5110268;28;20534;-74
2022/09/21 11:24:26;;;;;;;4.03;1.80;;;;;;;-143.84;35.35;45010.97;5109906;28;20439;-74
2022/09/21 11:27:01;;;;;;;1.87;1.20;;;;;;;-143.84;35.67;45009.09;5109874;28;20837;-74
2022/09/21 11:29:35;;;;;;;1.87;1.30;;;;;;;-143.84;35.88;45020.50;5109771;28;20435;-74
2022/09/21 11:32:20;;;;;;;2.70;1.30;;;;;;;-143.84;36.41;44988.13;5110148;28;20484;-74
2022/09/21 11:35:34;;;;;;;3.27;1.50;;;;;;;-143.84;35.89;44990.03;5109995;28;20446;-75
2022/09/21 11:38:13;;;;;;;4.90;1.40;;;;;;;-143.84;37.01;45035.75;5026918;28;20516;-75
2022/09/21 11:40:51;;;;;;;1.57;1.07;;;;;;;-143.84;36.16;45010.97;5106532;28;20758;-75
2022/09/21 11:43:31;;;;;;;2.10;1.43;;;;;;;-143.84;36.22;45024.31;5109613;28;20799;-75
2022/09/21 11:46:11;;;;;;;1.83;1.03;;;;;;;-143.84;37.16;45007.19;5109883;28;20435;-75
2022/09/21 11:48:52;;;;;;;4.03;1.57;;;;;;;-143.84;37.10;45033.84;5109584;28;20484;-74
2022/09/21 11:51:37;;;;;;;9.13;2.10;;;;;;;-143.84;42.43;45018.59;5108768;28;20507;-74
2022/09/21 11:54:40;;;;;;;4.13;2.27;;;;;;;-143.84;43.28;44995.75;5108355;28;20439;-74
2022/09/21 11:57:18;;;;;;;4.03;1.93;;;;;;;-143.84;40.97;45033.84;5108847;28;21015;-74
2022/09/21 12:00:03;;;;;;;3.13;1.43;;;;;;;-143.84;42.21;45010.97;5109300;28;20449;-74
2022/09/21 12:02:58;;;;;;;9.57;2.47;;;;;;;-143.84;50.35;45020.50;5109644;28;20447;-74
2022/09/21 12:05:31;;;;;;;2.00;1.20;;;;;;;-143.84;42.82;45018.59;5103190;28;20450;-74
2022/09/21 12:08:18;;;;;;;5.67;1.60;;;;;;;-143.84;47.58;45037.66;5111583;28;20443;-75
2022/09/21 12:10:57;;;;;;;4.80;1.40;;;;;;;-143.84;49.13;45043.34;5113686;28;20441;-75
2022/09/21 12:13:34;;;;;;;2.30;1.00;;;;;;;-143.84;47.49;45056.69;5113533;28;20483;-75